Flight Track Log - Related Links

Times and Time Zones

All times are in EDT time to prevent confusion due to time zone crossing. See the SWA1377 flight status page for this flight to view local times or setup timezone preferences in your user account.

Time Position Orientation Groundspeed Altitude Reporting Facility
EDT Latitude Longitude Course Direction KTS MPH feet Rate Location/Type
Wed 07:04:52 AM 29.5425 -98.4519 42° Northeast 144 166 2,300  Level Houston Center
Wed 07:05:59 AM 29.5889 -98.4047 42° Northeast 209 241 5,000 3,188 Climbing Houston Center
Wed 07:07:00 AM 29.6664 -98.4042 360° North 277 319 9,100 3,471 Climbing Houston Center
Wed 07:08:00 AM 29.7511 -98.4014 North 302 348 12,000 2,678 Climbing Houston Center
Wed 07:09:01 AM 29.8475 -98.3992 North 343 395 14,500 2,876 Climbing Houston Center
Wed 07:10:01 AM 29.9450 -98.3964 North 349 402 17,800 2,926 Climbing Houston Center
Wed 07:11:02 AM 30.0503 -98.3931 North 382 440 20,400 2,926 Climbing Houston Center
Wed 07:12:02 AM 30.1708 -98.3847 North 402 463 23,700 2,975 Climbing Houston Center
Wed 07:13:03 AM 30.2847 -98.3667 North 411 473 26,400 2,361 Climbing Houston Center
Wed 07:14:04 AM 30.3864 -98.3531 North 426 490 28,500 1,884 Climbing Houston Center
Wed 07:15:04 AM 30.5078 -98.3344 North 432 497 30,200 1,686 Climbing Houston Center
Wed 07:16:05 AM 30.6344 -98.3161 North 446 513 31,900 1,820 Climbing Houston Center
Wed 07:17:06 AM 30.7647 -98.2964 North 461 531 33,900 1,934 Climbing Houston Center
Wed 07:18:06 AM 30.8950 -98.2775 North 442 509 35,800 1,700 Climbing Fort Worth Center
Wed 07:19:06 AM 31.0203 -98.2617 North 448 516 37,300 1,350 Climbing Fort Worth Center
Wed 07:20:06 AM 31.1500 -98.2411 North 453 521 38,500 1,200 Climbing Fort Worth Center
Wed 07:21:06 AM 31.2922 -98.2206 North 462 532 39,700 1,100 Climbing Fort Worth Center
Wed 07:22:06 AM 31.4194 -98.1997 North 470 541 40,700 650 Climbing Fort Worth Center
Wed 07:23:06 AM 31.5492 -98.1789 North 461 531 41,000 150 Climbing Fort Worth Center
Wed 07:24:06 AM 31.6747 -98.1311 18° North 468 539 41,000  Level Fort Worth Center
Wed 07:25:06 AM 31.7922 -98.0392 34° Northeast 478 550 41,000  Level Fort Worth Center
Wed 07:26:06 AM 31.9094 -97.9469 34° Northeast 495 570 41,000  Level Fort Worth Center
Wed 07:27:06 AM 32.0247 -97.8569 33° Northeast 500 575 41,000  Level Fort Worth Center
Wed 07:28:06 AM 32.1292 -97.7764 33° Northeast 506 582 41,000  Level Fort Worth Center
Wed 07:29:06 AM 32.2464 -97.6836 34° Northeast 506 582 41,000  Level Fort Worth Center
Wed 07:30:06 AM 32.3636 -97.5978 32° Northeast 499 574 41,000  Level Fort Worth Center
Wed 07:31:06 AM 32.4783 -97.5069 34° Northeast 499 574 41,000  Level Fort Worth Center
Wed 07:32:06 AM 32.5953 -97.4133 34° Northeast 499 574 41,000  Level Fort Worth Center
Wed 07:33:06 AM 32.7081 -97.3219 34° Northeast 499 574 41,000  Level Fort Worth Center
Wed 07:34:06 AM 32.8269 -97.2281 34° Northeast 504 580 41,000  Level Fort Worth Center
Wed 07:35:06 AM 32.9561 -97.1336 32° Northeast 502 578 41,000  Level Fort Worth Center
Wed 07:36:06 AM 33.0708 -97.0539 30° Northeast 502 578 41,000  Level Fort Worth Center
Wed 07:37:06 AM 33.1875 -96.9742 30° Northeast 496 571 41,000  Level Fort Worth Center
Wed 07:38:06 AM 33.3061 -96.8889 31° Northeast 491 565 41,000  Level Fort Worth Center
Wed 07:39:06 AM 33.4247 -96.8061 30° Northeast 491 565 41,000  Level Fort Worth Center
Wed 07:40:06 AM 33.5433 -96.7231 30° Northeast 491 565 41,000  Level Fort Worth Center
Wed 07:41:06 AM 33.6658 -96.6397 30° Northeast 496 571 41,000  Level Fort Worth Center
Wed 07:42:06 AM 33.7947 -96.5411 32° Northeast 496 571 41,000  Level Fort Worth Center
Wed 07:43:06 AM 33.9172 -96.4600 29° Northeast 496 571 41,000  Level Fort Worth Center
Wed 07:44:06 AM 34.0375 -96.3708 32° Northeast 502 578 41,000  Level Fort Worth Center
Wed 07:45:06 AM 34.1392 -96.2994 30° Northeast 496 571 41,000  Level Fort Worth Center
Wed 07:46:06 AM 34.2614 -96.2097 31° Northeast 496 571 41,000  Level Fort Worth Center
Wed 07:47:06 AM 34.3794 -96.1225 31° Northeast 496 571 41,000  Level Fort Worth Center
Wed 07:48:06 AM 34.5017 -96.0353 30° Northeast 496 571 41,000  Level Fort Worth Center
Wed 07:49:06 AM 34.6197 -95.9450 32° Northeast 496 571 41,000  Level Fort Worth Center
Wed 07:50:06 AM 34.7353 -95.8369 38° Northeast 503 579 41,000  Level Fort Worth Center
Wed 07:51:06 AM 34.8528 -95.7308 37° Northeast 517 595 41,000  Level Fort Worth Center
Wed 07:52:06 AM 34.9700 -95.6247 37° Northeast 524 603 41,000  Level Fort Worth Center
Wed 07:53:06 AM 35.0956 -95.5106 37° Northeast 519 597 41,000  Level Fort Worth Center
Wed 07:54:33 AM 35.2511 -95.3658 37° Northeast 539 620 41,000  Level Memphis Center
Wed 07:55:33 AM 35.3636 -95.2581 38° Northeast 529 609 41,000  Level Memphis Center
Wed 07:56:33 AM 35.4806 -95.1503 37° Northeast 523 602 41,000  Level Memphis Center
Wed 07:57:33 AM 35.5931 -95.0419 38° Northeast 523 602 41,000  Level Memphis Center
Wed 07:58:33 AM 35.7078 -94.9333 38° Northeast 523 602 41,000  Level Memphis Center
Wed 07:59:33 AM 35.8219 -94.8269 37° Northeast 518 596 41,000  Level Memphis Center
Wed 08:00:33 AM 35.9364 -94.7203 37° Northeast 518 596 41,000  Level Memphis Center
Wed 08:01:33 AM 36.0506 -94.6108 38° Northeast 518 596 41,000  Level Memphis Center
Wed 08:02:33 AM 36.1628 -94.5011 38° Northeast 513 590 41,000  Level Memphis Center
Wed 08:03:33 AM 36.2725 -94.3958 38° Northeast 506 582 41,000  Level Memphis Center
Wed 08:05:21 AM 36.4708 -94.2058 38° Northeast 506 582 41,000  Level Kansas City Center
Wed 08:06:22 AM 36.5803 -94.0983 38° Northeast 505 581 41,000  Level Kansas City Center
Wed 08:07:22 AM 36.6928 -93.9894 38° Northeast 508 585 41,000  Level Kansas City Center
Wed 08:08:26 AM 36.8053 -93.8797 38° Northeast 511 588 41,000  Level Kansas City Center
Wed 08:09:26 AM 36.9250 -93.7614 38° Northeast 517 595 41,000  Level Kansas City Center
Wed 08:10:27 AM 37.0394 -93.6486 38° Northeast 520 598 41,000  Level Kansas City Center
Wed 08:11:27 AM 37.1528 -93.5367 38° Northeast 518 596 41,000  Level Kansas City Center
Wed 08:12:30 AM 37.2672 -93.4242 38° Northeast 519 597 41,000  Level Kansas City Center
Wed 08:13:31 AM 37.3817 -93.3111 38° Northeast 519 597 41,000  Level Kansas City Center
Wed 08:14:33 AM 37.4978 -93.2033 36° Northeast 517 595 41,000  Level Kansas City Center
Wed 08:15:33 AM 37.6389 -93.0767 35° Northeast 515 593 41,000  Level Kansas City Center
Wed 08:16:34 AM 37.7539 -92.9650 38° Northeast 518 596 41,000  Level Kansas City Center
Wed 08:17:37 AM 37.8711 -92.8564 36° Northeast 517 595 41,000  Level Kansas City Center
Wed 08:18:37 AM 37.9903 -92.7456 36° Northeast 521 600 41,000  Level Kansas City Center
Wed 08:19:38 AM 38.1117 -92.6303 37° Northeast 526 605 41,000  Level Kansas City Center
Wed 08:20:38 AM 38.2322 -92.5172 36° Northeast 529 609 41,000  Level Kansas City Center
Wed 08:22:43 AM 38.4731 -92.2861 37° Northeast 536 617 41,000  Level Kansas City Center
Wed 08:23:44 AM 38.5925 -92.1703 37° Northeast 535 616 41,000  Level Kansas City Center
Wed 08:24:46 AM 38.7125 -92.0547 37° Northeast 536 617 41,000  Level Kansas City Center
Wed 08:25:47 AM 38.8322 -91.9422 36° Northeast 532 612 41,000  Level Kansas City Center
Wed 08:26:48 AM 38.9475 -91.8283 38° Northeast 524 603 41,000  Level Kansas City Center
Wed 08:27:49 AM 39.0644 -91.7161 37° Northeast 523 602 41,000  Level Kansas City Center
Wed 08:28:52 AM 39.1722 -91.6106 37° Northeast 519 597 41,000 -435 Level Kansas City Center
Wed 08:29:53 AM 39.2892 -91.4408 48° Northeast 548 631 40,100 -934 Descending Kansas City Center
Wed 08:30:54 AM 39.3211 -91.2522 78° East 539 620 39,100 -984 Descending Kansas City Center
Wed 08:31:55 AM 39.3533 -91.0667 77° East 531 611 38,100 -934 Descending Kansas City Center
Wed 08:32:56 AM 39.3911 -90.8803 75° East 532 612 37,200 -1,073 Descending Kansas City Center
Wed 08:33:58 AM 39.4317 -90.6936 74° East 535 616 35,900 -1,073 Descending Kansas City Center
Wed 08:34:59 AM 39.4872 -90.5161 68° East 539 620 35,000 -532 Descending Kansas City Center
Wed 08:36:02 AM 39.6164 -90.4175 30° Northeast 542 624 34,800 -585 Descending Kansas City Center
Wed 08:37:02 AM 39.7619 -90.3369 23° Northeast 540 621 33,800 -1,000 Descending Kansas City Center
Wed 08:38:02 AM 39.8967 -90.2581 24° Northeast 535 616 32,800 -1,009 Descending Kansas City Center
Wed 08:38:49 AM 40.0033 -90.1956 24° Northeast 531 611 32,000 -991 Descending Chicago Center
Wed 08:39:51 AM 40.1394 -90.1158 24° Northeast 534 615 31,000 -726 Descending Chicago Center
Wed 08:40:53 AM 40.2728 -90.0364 24° Northeast 530 610 30,500 -1,161 Descending Chicago Center
Wed 08:41:55 AM 40.4006 -89.9311 32° Northeast 550 633 28,600 -2,081 Descending Chicago Center
Wed 08:42:57 AM 40.5236 -89.7594 47° Northeast 531 611 26,200 -2,049 Descending Chicago Center
Wed 08:43:58 AM 40.6194 -89.6272 46° Northeast 504 580 24,400 -1,707 Descending Chicago Center
Wed 08:45:00 AM 40.7050 -89.5108 46° Northeast 482 555 22,700 -1,742 Descending Chicago Center
Wed 08:46:02 AM 40.7919 -89.3903 46° Northeast 460 529 20,800 -2,468 Descending Chicago Center
Wed 08:47:04 AM 40.8931 -89.2508 46° Northeast 440 506 17,600 -1,790 Descending Chicago Center
Wed 08:48:06 AM 40.9714 -89.1386 47° Northeast 417 480 17,100 -677 Descending Chicago Center
Wed 08:49:08 AM 41.0494 -89.0278 47° Northeast 389 448 16,200 -1,500 Descending Chicago Center
Wed 08:50:10 AM 41.1231 -88.9242 47° Northeast 387 445 14,000 -2,293 Descending Chicago Center
Wed 08:51:11 AM 41.1936 -88.8236 47° Northeast 377 434 11,500 -1,805 Descending Chicago Center
Wed 08:52:13 AM 41.2589 -88.7292 47° Northeast 348 400 10,300 -1,210 Descending Chicago Center
Wed 08:53:15 AM 41.3133 -88.6506 47° Northeast 293 337 9,000 -1,355 Descending Chicago Center
Wed 08:54:17 AM 41.3667 -88.5769 46° Northeast 282 325 7,500 -1,463 Descending Chicago Center
Wed 08:55:18 AM 41.4167 -88.5044 47° Northeast 271 312 6,000 -732 Descending Chicago Center
Wed 08:56:20 AM 41.4683 -88.4125 53° Northeast 262 302 6,000  Level Chicago Center
Wed 08:57:22 AM 41.4864 -88.3147 76° East 271 312 6,000 -435 Level Chicago Center
Wed 08:58:24 AM 41.5044 -88.2175 76° East 270 311 5,100 -532 Descending Chicago Center
Wed 08:59:26 AM 41.5222 -88.1208 76° East 267 307 4,900 -98 Descending Chicago Center
Wed 09:00:27 AM 41.5397 -88.0242 76° East 264 304 4,900 49 Level Chicago Center
Wed 09:01:29 AM 41.5583 -87.9275 76° East 265 305 5,000 48 Climbing Chicago Center
Wed 09:02:31 AM 41.5758 -87.8311 76° East 267 307 5,000  Level Chicago Center
Wed 09:03:33 AM 41.5936 -87.7364 76° East 266 306 5,000  Level Chicago Center
Wed 09:04:34 AM 41.6039 -87.6556 80° East 244 281 5,000 -341 Level Chicago Center
Wed 09:05:36 AM 41.5956 -87.5664 97° East 240 276 4,300 -774 Descending Chicago Center
Wed 09:06:38 AM 41.6483 -87.5858 345° North 217 250 3,400 -629 Descending Chicago Center
Wed 09:07:40 AM 41.6928 -87.6183 331° Northwest 198 228 3,000 -444 Descending Chicago Center
Wed 09:08:26 AM 41.7167 -87.6500 315° West 162 186 2,600 -661 Descending Chicago TRACON
Wed 09:09:38 AM 41.7500 -87.7000 312° West 125 144 1,700 -762 Descending Chicago TRACON
Wed 09:10:32 AM 41.7667 -87.7333 304° West 123 142 1,000 -778 Descending Chicago TRACON

Login

Don't have an account? Register now (free) for customized features, flight alerts, and more!